sensor_id;sensor_type;location;lat;lon;timestamp;P1;durP1;ratioP1;P2;durP2;ratioP2
25752;SDS011;13600;50.816;4.416;2023-07-29T00:01:50;1.58;;;1.25;;
25752;SDS011;13600;50.816;4.416;2023-07-29T00:04:16;4.65;;;1.23;;
25752;SDS011;13600;50.816;4.416;2023-07-29T00:06:42;3.08;;;1.13;;
25752;SDS011;13600;50.816;4.416;2023-07-29T00:09:07;1.65;;;1.00;;
25752;SDS011;13600;50.816;4.416;2023-07-29T00:11:33;4.95;;;1.00;;
25752;SDS011;13600;50.816;4.416;2023-07-29T00:14:02;5.05;;;1.30;;
25752;SDS011;13600;50.816;4.416;2023-07-29T00:16:27;1.80;;;1.00;;
25752;SDS011;13600;50.816;4.416;2023-07-29T00:18:53;3.13;;;1.10;;
25752;SDS011;13600;50.816;4.416;2023-07-29T00:21:19;3.92;;;1.50;;
25752;SDS011;13600;50.816;4.416;2023-07-29T00:23:44;3.38;;;1.30;;
25752;SDS011;13600;50.816;4.416;2023-07-29T00:26:10;2.25;;;1.20;;
25752;SDS011;13600;50.816;4.416;2023-07-29T00:28:36;1.48;;;1.10;;
25752;SDS011;13600;50.816;4.416;2023-07-29T00:31:01;5.07;;;1.38;;
25752;SDS011;13600;50.816;4.416;2023-07-29T00:33:27;3.47;;;1.23;;
25752;SDS011;13600;50.816;4.416;2023-07-29T00:35:53;3.45;;;1.38;;
25752;SDS011;13600;50.816;4.416;2023-07-29T00:38:19;3.55;;;1.35;;
25752;SDS011;13600;50.816;4.416;2023-07-29T00:40:44;2.75;;;1.20;;
25752;SDS011;13600;50.816;4.416;2023-07-29T00:43:10;2.33;;;1.25;;
25752;SDS011;13600;50.816;4.416;2023-07-29T00:45:35;2.58;;;1.23;;
25752;SDS011;13600;50.816;4.416;2023-07-29T00:48:02;1.67;;;1.10;;
25752;SDS011;13600;50.816;4.416;2023-07-29T00:50:29;2.92;;;1.38;;
25752;SDS011;13600;50.816;4.416;2023-07-29T00:52:56;2.38;;;1.15;;
25752;SDS011;13600;50.816;4.416;2023-07-29T00:55:22;5.43;;;1.23;;
25752;SDS011;13600;50.816;4.416;2023-07-29T00:57:48;3.15;;;1.38;;
25752;SDS011;13600;50.816;4.416;2023-07-29T01:00:17;3.63;;;1.58;;
25752;SDS011;13600;50.816;4.416;2023-07-29T01:02:43;9.43;;;1.45;;
25752;SDS011;13600;50.816;4.416;2023-07-29T01:05:10;3.58;;;1.55;;
25752;SDS011;13600;50.816;4.416;2023-07-29T01:07:39;5.55;;;1.20;;
25752;SDS011;13600;50.816;4.416;2023-07-29T01:13:06;2.08;;;1.10;;
25752;SDS011;13600;50.816;4.416;2023-07-29T01:18:23;4.63;;;1.70;;
25752;SDS011;13600;50.816;4.416;2023-07-29T01:20:54;3.25;;;1.40;;
25752;SDS011;13600;50.816;4.416;2023-07-29T01:25:53;4.45;;;1.58;;
25752;SDS011;13600;50.816;4.416;2023-07-29T01:28:19;2.15;;;1.27;;
25752;SDS011;13600;50.816;4.416;2023-07-29T01:30:45;3.05;;;1.40;;
25752;SDS011;13600;50.816;4.416;2023-07-29T01:33:18;4.47;;;1.38;;
25752;SDS011;13600;50.816;4.416;2023-07-29T01:35:50;3.67;;;1.60;;
25752;SDS011;13600;50.816;4.416;2023-07-29T01:38:20;2.13;;;1.30;;
25752;SDS011;13600;50.816;4.416;2023-07-29T01:40:58;5.20;;;1.63;;
25752;SDS011;13600;50.816;4.416;2023-07-29T01:43:30;4.28;;;1.45;;
25752;SDS011;13600;50.816;4.416;2023-07-29T01:45:56;4.55;;;1.63;;
25752;SDS011;13600;50.816;4.416;2023-07-29T01:48:23;4.97;;;2.03;;
25752;SDS011;13600;50.816;4.416;2023-07-29T01:50:48;2.58;;;1.40;;
25752;SDS011;13600;50.816;4.416;2023-07-29T01:53:14;4.13;;;1.60;;
25752;SDS011;13600;50.816;4.416;2023-07-29T01:55:40;4.72;;;1.50;;
25752;SDS011;13600;50.816;4.416;2023-07-29T01:58:06;3.40;;;1.70;;
25752;SDS011;13600;50.816;4.416;2023-07-29T02:00:32;3.97;;;1.65;;
25752;SDS011;13600;50.816;4.416;2023-07-29T02:02:57;9.65;;;1.70;;
25752;SDS011;13600;50.816;4.416;2023-07-29T02:05:23;2.88;;;1.58;;
25752;SDS011;13600;50.816;4.416;2023-07-29T02:07:48;4.13;;;1.80;;
25752;SDS011;13600;50.816;4.416;2023-07-29T02:10:14;5.15;;;1.80;;
25752;SDS011;13600;50.816;4.416;2023-07-29T02:12:40;4.38;;;1.90;;
25752;SDS011;13600;50.816;4.416;2023-07-29T02:15:06;6.43;;;1.92;;
25752;SDS011;13600;50.816;4.416;2023-07-29T02:17:32;4.90;;;1.80;;
25752;SDS011;13600;50.816;4.416;2023-07-29T02:19:58;2.95;;;1.65;;
25752;SDS011;13600;50.816;4.416;2023-07-29T02:22:23;5.25;;;1.50;;
25752;SDS011;13600;50.816;4.416;2023-07-29T02:24:49;7.97;;;1.77;;
25752;SDS011;13600;50.816;4.416;2023-07-29T02:27:14;8.00;;;1.63;;
25752;SDS011;13600;50.816;4.416;2023-07-29T02:29:40;3.92;;;2.00;;
25752;SDS011;13600;50.816;4.416;2023-07-29T02:32:06;5.47;;;1.67;;
25752;SDS011;13600;50.816;4.416;2023-07-29T02:34:31;5.65;;;1.80;;
25752;SDS011;13600;50.816;4.416;2023-07-29T02:36:57;3.55;;;2.00;;
25752;SDS011;13600;50.816;4.416;2023-07-29T02:39:24;4.28;;;2.03;;
25752;SDS011;13600;50.816;4.416;2023-07-29T02:41:49;5.75;;;1.70;;
25752;SDS011;13600;50.816;4.416;2023-07-29T02:44:15;3.42;;;1.80;;
25752;SDS011;13600;50.816;4.416;2023-07-29T02:46:41;7.15;;;1.70;;
25752;SDS011;13600;50.816;4.416;2023-07-29T02:49:06;4.63;;;1.90;;
25752;SDS011;13600;50.816;4.416;2023-07-29T02:51:32;8.20;;;2.10;;
25752;SDS011;13600;50.816;4.416;2023-07-29T02:53:58;3.08;;;1.67;;
25752;SDS011;13600;50.816;4.416;2023-07-29T02:56:23;3.83;;;1.63;;
25752;SDS011;13600;50.816;4.416;2023-07-29T02:58:49;7.68;;;2.42;;
25752;SDS011;13600;50.816;4.416;2023-07-29T03:01:16;6.70;;;1.90;;
25752;SDS011;13600;50.816;4.416;2023-07-29T03:03:42;5.60;;;1.75;;
25752;SDS011;13600;50.816;4.416;2023-07-29T03:06:09;4.93;;;1.90;;
25752;SDS011;13600;50.816;4.416;2023-07-29T03:08:36;5.03;;;1.70;;
25752;SDS011;13600;50.816;4.416;2023-07-29T03:11:07;4.05;;;1.83;;
25752;SDS011;13600;50.816;4.416;2023-07-29T03:13:34;2.47;;;1.63;;
25752;SDS011;13600;50.816;4.416;2023-07-29T03:18:35;6.50;;;2.10;;
25752;SDS011;13600;50.816;4.416;2023-07-29T03:21:01;3.00;;;1.63;;
25752;SDS011;13600;50.816;4.416;2023-07-29T03:23:28;4.40;;;1.63;;
25752;SDS011;13600;50.816;4.416;2023-07-29T03:25:54;2.83;;;1.52;;
25752;SDS011;13600;50.816;4.416;2023-07-29T03:28:24;6.07;;;1.60;;
25752;SDS011;13600;50.816;4.416;2023-07-29T03:30:52;2.75;;;1.67;;
25752;SDS011;13600;50.816;4.416;2023-07-29T03:33:21;3.40;;;1.80;;
25752;SDS011;13600;50.816;4.416;2023-07-29T03:35:47;5.20;;;2.00;;
25752;SDS011;13600;50.816;4.416;2023-07-29T03:38:13;3.10;;;1.80;;
25752;SDS011;13600;50.816;4.416;2023-07-29T03:40:39;3.55;;;1.80;;
25752;SDS011;13600;50.816;4.416;2023-07-29T03:43:05;5.03;;;2.13;;
25752;SDS011;13600;50.816;4.416;2023-07-29T03:45:31;3.53;;;1.60;;
25752;SDS011;13600;50.816;4.416;2023-07-29T03:47:57;3.47;;;1.80;;
25752;SDS011;13600;50.816;4.416;2023-07-29T03:50:22;3.83;;;1.80;;
25752;SDS011;13600;50.816;4.416;2023-07-29T03:52:49;4.20;;;1.58;;
25752;SDS011;13600;50.816;4.416;2023-07-29T03:55:15;5.20;;;1.70;;
25752;SDS011;13600;50.816;4.416;2023-07-29T03:57:40;5.85;;;1.50;;
25752;SDS011;13600;50.816;4.416;2023-07-29T04:00:06;3.58;;;1.80;;
25752;SDS011;13600;50.816;4.416;2023-07-29T04:02:32;4.93;;;1.83;;
25752;SDS011;13600;50.816;4.416;2023-07-29T04:04:58;4.60;;;1.88;;
25752;SDS011;13600;50.816;4.416;2023-07-29T04:07:23;5.50;;;1.65;;
25752;SDS011;13600;50.816;4.416;2023-07-29T04:09:49;5.47;;;1.90;;
25752;SDS011;13600;50.816;4.416;2023-07-29T04:12:15;5.72;;;1.80;;
25752;SDS011;13600;50.816;4.416;2023-07-29T04:14:40;3.75;;;1.70;;
25752;SDS011;13600;50.816;4.416;2023-07-29T04:17:06;3.42;;;1.70;;
25752;SDS011;13600;50.816;4.416;2023-07-29T04:19:32;2.85;;;1.75;;
25752;SDS011;13600;50.816;4.416;2023-07-29T04:21:58;5.43;;;1.95;;
25752;SDS011;13600;50.816;4.416;2023-07-29T04:24:24;3.05;;;1.50;;
25752;SDS011;13600;50.816;4.416;2023-07-29T04:26:50;3.42;;;1.60;;
25752;SDS011;13600;50.816;4.416;2023-07-29T04:29:15;7.45;;;1.58;;
25752;SDS011;13600;50.816;4.416;2023-07-29T04:31:41;3.78;;;1.60;;
25752;SDS011;13600;50.816;4.416;2023-07-29T04:34:07;5.53;;;1.75;;
25752;SDS011;13600;50.816;4.416;2023-07-29T04:36:33;4.93;;;1.48;;
25752;SDS011;13600;50.816;4.416;2023-07-29T04:38:59;8.80;;;1.73;;
25752;SDS011;13600;50.816;4.416;2023-07-29T04:41:25;8.25;;;1.60;;
25752;SDS011;13600;50.816;4.416;2023-07-29T04:43:51;3.10;;;1.55;;
25752;SDS011;13600;50.816;4.416;2023-07-29T04:46:17;4.57;;;1.63;;
25752;SDS011;13600;50.816;4.416;2023-07-29T04:48:43;2.97;;;1.48;;
25752;SDS011;13600;50.816;4.416;2023-07-29T04:51:08;7.78;;;1.80;;
25752;SDS011;13600;50.816;4.416;2023-07-29T04:53:34;5.80;;;1.52;;
25752;SDS011;13600;50.816;4.416;2023-07-29T04:56:01;5.18;;;1.60;;
25752;SDS011;13600;50.816;4.416;2023-07-29T04:58:27;4.10;;;1.88;;
25752;SDS011;13600;50.816;4.416;2023-07-29T05:00:54;5.15;;;1.73;;
25752;SDS011;13600;50.816;4.416;2023-07-29T05:03:22;4.32;;;1.50;;
25752;SDS011;13600;50.816;4.416;2023-07-29T05:05:48;2.72;;;1.73;;
25752;SDS011;13600;50.816;4.416;2023-07-29T05:08:14;4.35;;;1.70;;
25752;SDS011;13600;50.816;4.416;2023-07-29T05:10:39;9.20;;;1.70;;
25752;SDS011;13600;50.816;4.416;2023-07-29T05:13:05;4.75;;;1.83;;
25752;SDS011;13600;50.816;4.416;2023-07-29T05:15:30;6.03;;;1.42;;
25752;SDS011;13600;50.816;4.416;2023-07-29T05:17:56;6.20;;;1.90;;
25752;SDS011;13600;50.816;4.416;2023-07-29T05:20:21;4.30;;;1.58;;
25752;SDS011;13600;50.816;4.416;2023-07-29T05:22:47;4.45;;;1.50;;
25752;SDS011;13600;50.816;4.416;2023-07-29T05:25:13;6.22;;;1.60;;
25752;SDS011;13600;50.816;4.416;2023-07-29T05:27:38;6.13;;;1.50;;
25752;SDS011;13600;50.816;4.416;2023-07-29T05:30:04;2.88;;;1.45;;
25752;SDS011;13600;50.816;4.416;2023-07-29T05:32:31;6.97;;;1.60;;
25752;SDS011;13600;50.816;4.416;2023-07-29T05:34:57;3.33;;;1.48;;
25752;SDS011;13600;50.816;4.416;2023-07-29T05:37:22;3.55;;;1.30;;
25752;SDS011;13600;50.816;4.416;2023-07-29T05:39:48;3.45;;;1.55;;
25752;SDS011;13600;50.816;4.416;2023-07-29T05:42:13;5.35;;;1.35;;
25752;SDS011;13600;50.816;4.416;2023-07-29T05:44:39;6.07;;;1.60;;
25752;SDS011;13600;50.816;4.416;2023-07-29T05:47:05;5.43;;;1.40;;
25752;SDS011;13600;50.816;4.416;2023-07-29T05:49:30;4.85;;;1.35;;
25752;SDS011;13600;50.816;4.416;2023-07-29T05:51:56;2.33;;;1.30;;
25752;SDS011;13600;50.816;4.416;2023-07-29T05:54:21;3.65;;;1.30;;
25752;SDS011;13600;50.816;4.416;2023-07-29T05:56:47;3.63;;;1.20;;
25752;SDS011;13600;50.816;4.416;2023-07-29T05:59:12;2.90;;;1.13;;
25752;SDS011;13600;50.816;4.416;2023-07-29T06:01:38;2.03;;;1.20;;
25752;SDS011;13600;50.816;4.416;2023-07-29T06:04:04;5.03;;;1.30;;
25752;SDS011;13600;50.816;4.416;2023-07-29T06:06:29;3.05;;;1.00;;
25752;SDS011;13600;50.816;4.416;2023-07-29T06:08:55;5.20;;;1.45;;
25752;SDS011;13600;50.816;4.416;2023-07-29T06:11:20;1.88;;;1.10;;
25752;SDS011;13600;50.816;4.416;2023-07-29T06:13:46;3.42;;;1.10;;
25752;SDS011;13600;50.816;4.416;2023-07-29T06:16:13;2.50;;;0.98;;
25752;SDS011;13600;50.816;4.416;2023-07-29T06:18:38;2.60;;;1.20;;
25752;SDS011;13600;50.816;4.416;2023-07-29T06:21:04;4.38;;;1.30;;
25752;SDS011;13600;50.816;4.416;2023-07-29T06:23:33;2.33;;;1.20;;
25752;SDS011;13600;50.816;4.416;2023-07-29T06:25:59;5.53;;;2.10;;
25752;SDS011;13600;50.816;4.416;2023-07-29T06:28:28;2.53;;;1.10;;
25752;SDS011;13600;50.816;4.416;2023-07-29T06:30:53;5.90;;;1.40;;
25752;SDS011;13600;50.816;4.416;2023-07-29T06:33:19;2.40;;;1.10;;
25752;SDS011;13600;50.816;4.416;2023-07-29T06:35:44;5.05;;;0.90;;
25752;SDS011;13600;50.816;4.416;2023-07-29T06:38:10;5.60;;;1.15;;
25752;SDS011;13600;50.816;4.416;2023-07-29T06:40:36;2.85;;;1.15;;
25752;SDS011;13600;50.816;4.416;2023-07-29T06:43:01;2.60;;;1.20;;
25752;SDS011;13600;50.816;4.416;2023-07-29T06:45:27;1.40;;;0.90;;
25752;SDS011;13600;50.816;4.416;2023-07-29T06:47:52;2.83;;;1.17;;
25752;SDS011;13600;50.816;4.416;2023-07-29T06:50:18;1.25;;;1.10;;
25752;SDS011;13600;50.816;4.416;2023-07-29T06:52:44;7.30;;;0.90;;
25752;SDS011;13600;50.816;4.416;2023-07-29T06:55:10;3.33;;;1.00;;
25752;SDS011;13600;50.816;4.416;2023-07-29T06:57:36;2.45;;;1.20;;
25752;SDS011;13600;50.816;4.416;2023-07-29T07:00:02;4.18;;;1.10;;
25752;SDS011;13600;50.816;4.416;2023-07-29T07:02:28;3.38;;;1.20;;
25752;SDS011;13600;50.816;4.416;2023-07-29T07:04:53;3.25;;;1.20;;
25752;SDS011;13600;50.816;4.416;2023-07-29T07:07:19;2.25;;;1.25;;
25752;SDS011;13600;50.816;4.416;2023-07-29T07:09:45;3.40;;;1.23;;
25752;SDS011;13600;50.816;4.416;2023-07-29T07:12:10;1.88;;;1.05;;
25752;SDS011;13600;50.816;4.416;2023-07-29T07:14:36;4.47;;;1.23;;
25752;SDS011;13600;50.816;4.416;2023-07-29T07:17:02;2.00;;;1.00;;
25752;SDS011;13600;50.816;4.416;2023-07-29T07:19:28;6.85;;;1.20;;
25752;SDS011;13600;50.816;4.416;2023-07-29T07:21:53;6.88;;;1.17;;
25752;SDS011;13600;50.816;4.416;2023-07-29T07:24:19;4.32;;;1.10;;
25752;SDS011;13600;50.816;4.416;2023-07-29T07:26:44;2.05;;;1.17;;
25752;SDS011;13600;50.816;4.416;2023-07-29T07:29:10;2.10;;;1.15;;
25752;SDS011;13600;50.816;4.416;2023-07-29T07:31:35;1.92;;;0.98;;
25752;SDS011;13600;50.816;4.416;2023-07-29T07:34:01;4.35;;;1.20;;
25752;SDS011;13600;50.816;4.416;2023-07-29T07:36:27;3.72;;;1.00;;
25752;SDS011;13600;50.816;4.416;2023-07-29T07:38:53;2.30;;;1.00;;
25752;SDS011;13600;50.816;4.416;2023-07-29T07:41:19;6.53;;;1.30;;
25752;SDS011;13600;50.816;4.416;2023-07-29T07:43:45;5.65;;;0.93;;
25752;SDS011;13600;50.816;4.416;2023-07-29T07:46:10;3.63;;;1.45;;
25752;SDS011;13600;50.816;4.416;2023-07-29T07:48:36;2.92;;;1.30;;
25752;SDS011;13600;50.816;4.416;2023-07-29T07:51:09;3.70;;;1.20;;
25752;SDS011;13600;50.816;4.416;2023-07-29T07:53:38;2.03;;;1.08;;
25752;SDS011;13600;50.816;4.416;2023-07-29T07:56:05;4.72;;;1.23;;
25752;SDS011;13600;50.816;4.416;2023-07-29T07:58:31;0.85;;;0.80;;
25752;SDS011;13600;50.816;4.416;2023-07-29T08:01:04;4.28;;;1.08;;
25752;SDS011;13600;50.816;4.416;2023-07-29T08:03:31;2.05;;;1.10;;
25752;SDS011;13600;50.816;4.416;2023-07-29T08:05:57;2.40;;;1.10;;
25752;SDS011;13600;50.816;4.416;2023-07-29T08:08:23;5.72;;;1.10;;
25752;SDS011;13600;50.816;4.416;2023-07-29T08:10:49;5.47;;;1.30;;
25752;SDS011;13600;50.816;4.416;2023-07-29T08:13:15;4.75;;;1.00;;
25752;SDS011;13600;50.816;4.416;2023-07-29T08:15:40;2.85;;;1.00;;
25752;SDS011;13600;50.816;4.416;2023-07-29T08:18:06;3.35;;;1.42;;
25752;SDS011;13600;50.816;4.416;2023-07-29T08:20:32;2.35;;;0.90;;
25752;SDS011;13600;50.816;4.416;2023-07-29T08:22:57;2.05;;;1.10;;
25752;SDS011;13600;50.816;4.416;2023-07-29T08:25:23;1.80;;;1.00;;
25752;SDS011;13600;50.816;4.416;2023-07-29T08:27:49;4.80;;;1.17;;
25752;SDS011;13600;50.816;4.416;2023-07-29T08:30:14;4.07;;;0.93;;
25752;SDS011;13600;50.816;4.416;2023-07-29T08:32:41;1.77;;;0.98;;
25752;SDS011;13600;50.816;4.416;2023-07-29T08:35:07;1.63;;;0.90;;
25752;SDS011;13600;50.816;4.416;2023-07-29T08:37:32;3.90;;;0.90;;
25752;SDS011;13600;50.816;4.416;2023-07-29T08:39:58;2.83;;;0.88;;
25752;SDS011;13600;50.816;4.416;2023-07-29T08:42:25;2.35;;;1.00;;
25752;SDS011;13600;50.816;4.416;2023-07-29T08:44:54;2.05;;;1.00;;
25752;SDS011;13600;50.816;4.416;2023-07-29T08:47:21;4.90;;;1.30;;
25752;SDS011;13600;50.816;4.416;2023-07-29T08:49:46;3.28;;;0.93;;
25752;SDS011;13600;50.816;4.416;2023-07-29T08:52:13;3.20;;;0.95;;
25752;SDS011;13600;50.816;4.416;2023-07-29T08:54:40;3.42;;;1.13;;
25752;SDS011;13600;50.816;4.416;2023-07-29T08:57:06;2.13;;;1.10;;
25752;SDS011;13600;50.816;4.416;2023-07-29T08:59:32;1.80;;;1.20;;
25752;SDS011;13600;50.816;4.416;2023-07-29T09:01:58;1.27;;;1.08;;
25752;SDS011;13600;50.816;4.416;2023-07-29T09:04:24;1.70;;;1.00;;
25752;SDS011;13600;50.816;4.416;2023-07-29T09:06:50;2.90;;;1.30;;
25752;SDS011;13600;50.816;4.416;2023-07-29T09:09:16;2.47;;;1.08;;
25752;SDS011;13600;50.816;4.416;2023-07-29T09:11:42;2.50;;;1.10;;
25752;SDS011;13600;50.816;4.416;2023-07-29T09:14:08;1.40;;;1.00;;
25752;SDS011;13600;50.816;4.416;2023-07-29T09:16:35;1.48;;;0.98;;
25752;SDS011;13600;50.816;4.416;2023-07-29T09:19:01;1.65;;;1.08;;
25752;SDS011;13600;50.816;4.416;2023-07-29T09:21:28;1.30;;;1.00;;
25752;SDS011;13600;50.816;4.416;2023-07-29T09:23:55;1.95;;;1.15;;
25752;SDS011;13600;50.816;4.416;2023-07-29T09:26:27;3.42;;;1.00;;
25752;SDS011;13600;50.816;4.416;2023-07-29T09:28:56;1.58;;;1.08;;
25752;SDS011;13600;50.816;4.416;2023-07-29T09:31:23;1.73;;;1.15;;
25752;SDS011;13600;50.816;4.416;2023-07-29T09:33:50;2.50;;;1.10;;
25752;SDS011;13600;50.816;4.416;2023-07-29T09:36:24;1.67;;;1.10;;
25752;SDS011;13600;50.816;4.416;2023-07-29T09:38:54;2.75;;;1.10;;
25752;SDS011;13600;50.816;4.416;2023-07-29T09:41:22;1.60;;;1.13;;
25752;SDS011;13600;50.816;4.416;2023-07-29T09:43:58;1.75;;;1.23;;
25752;SDS011;13600;50.816;4.416;2023-07-29T09:46:25;1.98;;;1.30;;
25752;SDS011;13600;50.816;4.416;2023-07-29T09:48:56;7.53;;;1.67;;
25752;SDS011;13600;50.816;4.416;2023-07-29T09:51:22;5.20;;;1.27;;
25752;SDS011;13600;50.816;4.416;2023-07-29T09:53:50;1.73;;;1.20;;
25752;SDS011;13600;50.816;4.416;2023-07-29T09:56:25;3.10;;;1.30;;
25752;SDS011;13600;50.816;4.416;2023-07-29T09:58:57;3.35;;;1.25;;
25752;SDS011;13600;50.816;4.416;2023-07-29T10:01:23;3.63;;;1.20;;
25752;SDS011;13600;50.816;4.416;2023-07-29T10:03:49;2.10;;;1.40;;
25752;SDS011;13600;50.816;4.416;2023-07-29T10:06:15;1.60;;;1.00;;
25752;SDS011;13600;50.816;4.416;2023-07-29T10:08:42;2.60;;;1.38;;
25752;SDS011;13600;50.816;4.416;2023-07-29T10:11:09;2.20;;;1.20;;
25752;SDS011;13600;50.816;4.416;2023-07-29T10:13:35;5.32;;;1.30;;
25752;SDS011;13600;50.816;4.416;2023-07-29T10:16:02;2.75;;;1.45;;
25752;SDS011;13600;50.816;4.416;2023-07-29T10:18:29;2.90;;;1.42;;
25752;SDS011;13600;50.816;4.416;2023-07-29T10:20:56;3.72;;;1.30;;
25752;SDS011;13600;50.816;4.416;2023-07-29T10:23:24;4.53;;;1.40;;
25752;SDS011;13600;50.816;4.416;2023-07-29T10:25:54;3.40;;;1.45;;
25752;SDS011;13600;50.816;4.416;2023-07-29T10:28:30;2.70;;;1.58;;
25752;SDS011;13600;50.816;4.416;2023-07-29T10:30:57;4.40;;;1.70;;
25752;SDS011;13600;50.816;4.416;2023-07-29T10:33:23;3.70;;;1.40;;
25752;SDS011;13600;50.816;4.416;2023-07-29T10:35:49;3.83;;;1.88;;
25752;SDS011;13600;50.816;4.416;2023-07-29T10:38:16;4.35;;;2.03;;
25752;SDS011;13600;50.816;4.416;2023-07-29T10:40:44;2.15;;;1.60;;
25752;SDS011;13600;50.816;4.416;2023-07-29T10:45:49;3.45;;;1.58;;
25752;SDS011;13600;50.816;4.416;2023-07-29T10:53:54;2.33;;;1.40;;
25752;SDS011;13600;50.816;4.416;2023-07-29T10:56:29;2.58;;;1.40;;
25752;SDS011;13600;50.816;4.416;2023-07-29T10:58:59;3.22;;;1.35;;
25752;SDS011;13600;50.816;4.416;2023-07-29T11:01:51;6.65;;;1.50;;
25752;SDS011;13600;50.816;4.416;2023-07-29T11:09:45;6.07;;;1.92;;
25752;SDS011;13600;50.816;4.416;2023-07-29T11:12:37;3.25;;;1.70;;
25752;SDS011;13600;50.816;4.416;2023-07-29T11:20:26;2.95;;;1.90;;
25752;SDS011;13600;50.816;4.416;2023-07-29T11:22:54;4.05;;;1.70;;
25752;SDS011;13600;50.816;4.416;2023-07-29T11:25:22;2.35;;;1.55;;
25752;SDS011;13600;50.816;4.416;2023-07-29T11:27:49;6.13;;;1.85;;
25752;SDS011;13600;50.816;4.416;2023-07-29T11:30:18;4.22;;;1.80;;
25752;SDS011;13600;50.816;4.416;2023-07-29T11:32:44;3.88;;;1.60;;
25752;SDS011;13600;50.816;4.416;2023-07-29T11:35:18;2.33;;;1.60;;
25752;SDS011;13600;50.816;4.416;2023-07-29T11:37:48;2.45;;;1.55;;
25752;SDS011;13600;50.816;4.416;2023-07-29T11:40:19;4.45;;;1.73;;
25752;SDS011;13600;50.816;4.416;2023-07-29T11:42:46;3.90;;;1.80;;
25752;SDS011;13600;50.816;4.416;2023-07-29T11:45:13;5.18;;;1.63;;
25752;SDS011;13600;50.816;4.416;2023-07-29T11:47:39;3.30;;;1.88;;
25752;SDS011;13600;50.816;4.416;2023-07-29T11:50:09;1.73;;;1.50;;
25752;SDS011;13600;50.816;4.416;2023-07-29T11:52:39;3.03;;;1.40;;
25752;SDS011;13600;50.816;4.416;2023-07-29T11:55:10;1.90;;;1.42;;
25752;SDS011;13600;50.816;4.416;2023-07-29T11:57:38;2.60;;;1.20;;
25752;SDS011;13600;50.816;4.416;2023-07-29T12:00:04;3.15;;;1.27;;
25752;SDS011;13600;50.816;4.416;2023-07-29T12:02:32;1.60;;;1.38;;
25752;SDS011;13600;50.816;4.416;2023-07-29T12:04:59;1.90;;;1.20;;
25752;SDS011;13600;50.816;4.416;2023-07-29T12:07:25;3.08;;;1.27;;
25752;SDS011;13600;50.816;4.416;2023-07-29T12:09:51;3.03;;;1.25;;
25752;SDS011;13600;50.816;4.416;2023-07-29T12:12:17;1.63;;;1.40;;
25752;SDS011;13600;50.816;4.416;2023-07-29T12:14:44;3.40;;;1.50;;
25752;SDS011;13600;50.816;4.416;2023-07-29T12:17:12;7.22;;;2.25;;
25752;SDS011;13600;50.816;4.416;2023-07-29T12:19:39;2.67;;;1.58;;
25752;SDS011;13600;50.816;4.416;2023-07-29T12:22:06;6.47;;;2.00;;
25752;SDS011;13600;50.816;4.416;2023-07-29T12:24:33;5.82;;;2.30;;
25752;SDS011;13600;50.816;4.416;2023-07-29T12:27:01;2.60;;;1.95;;
25752;SDS011;13600;50.816;4.416;2023-07-29T12:29:26;4.22;;;2.30;;
25752;SDS011;13600;50.816;4.416;2023-07-29T12:31:59;5.75;;;2.67;;
25752;SDS011;13600;50.816;4.416;2023-07-29T12:34:28;4.25;;;2.40;;
25752;SDS011;13600;50.816;4.416;2023-07-29T12:36:54;17.48;;;5.57;;
25752;SDS011;13600;50.816;4.416;2023-07-29T12:41:49;6.10;;;2.63;;
25752;SDS011;13600;50.816;4.416;2023-07-29T12:44:15;2.95;;;2.40;;
25752;SDS011;13600;50.816;4.416;2023-07-29T12:46:41;3.55;;;2.00;;
25752;SDS011;13600;50.816;4.416;2023-07-29T12:49:07;6.28;;;1.80;;
25752;SDS011;13600;50.816;4.416;2023-07-29T12:51:33;3.28;;;1.98;;
25752;SDS011;13600;50.816;4.416;2023-07-29T12:53:59;4.20;;;2.13;;
25752;SDS011;13600;50.816;4.416;2023-07-29T12:56:25;3.35;;;1.52;;
25752;SDS011;13600;50.816;4.416;2023-07-29T12:58:51;2.60;;;1.40;;
25752;SDS011;13600;50.816;4.416;2023-07-29T13:01:17;5.20;;;1.65;;
25752;SDS011;13600;50.816;4.416;2023-07-29T13:03:43;2.90;;;1.52;;
25752;SDS011;13600;50.816;4.416;2023-07-29T13:06:09;2.30;;;1.30;;
25752;SDS011;13600;50.816;4.416;2023-07-29T13:08:35;1.85;;;1.30;;
25752;SDS011;13600;50.816;4.416;2023-07-29T13:11:01;1.90;;;1.20;;
25752;SDS011;13600;50.816;4.416;2023-07-29T13:13:27;2.05;;;1.20;;
25752;SDS011;13600;50.816;4.416;2023-07-29T13:15:52;2.65;;;1.40;;
25752;SDS011;13600;50.816;4.416;2023-07-29T13:18:18;1.88;;;1.20;;
25752;SDS011;13600;50.816;4.416;2023-07-29T13:20:44;2.75;;;1.50;;
25752;SDS011;13600;50.816;4.416;2023-07-29T13:23:10;1.75;;;1.50;;
25752;SDS011;13600;50.816;4.416;2023-07-29T13:25:36;2.35;;;1.42;;
25752;SDS011;13600;50.816;4.416;2023-07-29T13:28:01;1.60;;;1.50;;
25752;SDS011;13600;50.816;4.416;2023-07-29T13:30:27;2.58;;;1.80;;
25752;SDS011;13600;50.816;4.416;2023-07-29T13:32:52;4.32;;;1.75;;
25752;SDS011;13600;50.816;4.416;2023-07-29T13:35:19;2.58;;;1.48;;
25752;SDS011;13600;50.816;4.416;2023-07-29T13:37:45;2.28;;;1.70;;
25752;SDS011;13600;50.816;4.416;2023-07-29T13:40:10;2.85;;;1.20;;
25752;SDS011;13600;50.816;4.416;2023-07-29T13:42:36;2.05;;;1.30;;
25752;SDS011;13600;50.816;4.416;2023-07-29T13:45:02;2.85;;;0.98;;
25752;SDS011;13600;50.816;4.416;2023-07-29T13:47:27;1.92;;;0.80;;
25752;SDS011;13600;50.816;4.416;2023-07-29T13:49:53;1.50;;;0.90;;
25752;SDS011;13600;50.816;4.416;2023-07-29T13:52:19;2.35;;;0.90;;
25752;SDS011;13600;50.816;4.416;2023-07-29T13:54:44;1.10;;;0.68;;
25752;SDS011;13600;50.816;4.416;2023-07-29T13:57:10;2.53;;;0.95;;
25752;SDS011;13600;50.816;4.416;2023-07-29T13:59:35;1.35;;;1.10;;
25752;SDS011;13600;50.816;4.416;2023-07-29T14:02:04;2.90;;;1.00;;
25752;SDS011;13600;50.816;4.416;2023-07-29T14:04:30;2.10;;;0.70;;
25752;SDS011;13600;50.816;4.416;2023-07-29T14:06:57;1.42;;;0.90;;
25752;SDS011;13600;50.816;4.416;2023-07-29T14:09:22;3.25;;;0.90;;
25752;SDS011;13600;50.816;4.416;2023-07-29T14:11:49;2.47;;;0.82;;
25752;SDS011;13600;50.816;4.416;2023-07-29T14:14:14;0.77;;;0.73;;
25752;SDS011;13600;50.816;4.416;2023-07-29T14:16:40;0.70;;;0.68;;
25752;SDS011;13600;50.816;4.416;2023-07-29T14:19:06;1.23;;;0.70;;
25752;SDS011;13600;50.816;4.416;2023-07-29T14:21:31;1.00;;;0.90;;
25752;SDS011;13600;50.816;4.416;2023-07-29T14:23:57;0.85;;;0.73;;
25752;SDS011;13600;50.816;4.416;2023-07-29T14:26:22;2.42;;;0.85;;
25752;SDS011;13600;50.816;4.416;2023-07-29T14:28:48;1.05;;;0.85;;
25752;SDS011;13600;50.816;4.416;2023-07-29T14:31:15;0.73;;;0.63;;
25752;SDS011;13600;50.816;4.416;2023-07-29T14:33:42;4.03;;;1.13;;
25752;SDS011;13600;50.816;4.416;2023-07-29T14:36:08;2.53;;;0.90;;
25752;SDS011;13600;50.816;4.416;2023-07-29T14:38:35;0.90;;;0.80;;
25752;SDS011;13600;50.816;4.416;2023-07-29T14:41:01;1.77;;;0.75;;
25752;SDS011;13600;50.816;4.416;2023-07-29T14:43:28;1.90;;;0.93;;
25752;SDS011;13600;50.816;4.416;2023-07-29T14:45:55;0.93;;;0.80;;
25752;SDS011;13600;50.816;4.416;2023-07-29T14:48:20;1.60;;;0.80;;
25752;SDS011;13600;50.816;4.416;2023-07-29T14:50:46;1.63;;;0.88;;
25752;SDS011;13600;50.816;4.416;2023-07-29T14:53:12;2.03;;;0.75;;
25752;SDS011;13600;50.816;4.416;2023-07-29T14:55:38;1.30;;;0.90;;
25752;SDS011;13600;50.816;4.416;2023-07-29T14:58:03;2.13;;;1.05;;
25752;SDS011;13600;50.816;4.416;2023-07-29T15:00:29;2.20;;;0.95;;
25752;SDS011;13600;50.816;4.416;2023-07-29T15:02:54;3.17;;;0.80;;
25752;SDS011;13600;50.816;4.416;2023-07-29T15:05:20;1.17;;;0.90;;
25752;SDS011;13600;50.816;4.416;2023-07-29T15:07:46;1.35;;;0.80;;
25752;SDS011;13600;50.816;4.416;2023-07-29T15:10:14;1.00;;;0.90;;
25752;SDS011;13600;50.816;4.416;2023-07-29T15:12:40;1.98;;;1.00;;
25752;SDS011;13600;50.816;4.416;2023-07-29T15:15:09;1.73;;;0.90;;
25752;SDS011;13600;50.816;4.416;2023-07-29T15:17:36;1.98;;;0.90;;